createdAt,value
2022-11-04T00:00:32.136Z,13.03
2022-11-04T00:02:59.863Z,12.57
2022-11-04T00:05:27.298Z,12.40
2022-11-04T00:08:13.243Z,12.17
2022-11-04T00:10:59.247Z,12.62
2022-11-04T00:13:28.646Z,12.88
2022-11-04T00:16:15.004Z,12.61
2022-11-04T00:18:42.447Z,12.86
2022-11-04T00:21:28.776Z,13.20
2022-11-04T00:24:14.662Z,13.16
2022-11-04T00:27:00.715Z,12.44
2022-11-04T00:29:29.040Z,12.44
2022-11-04T00:32:15.219Z,12.70
2022-11-04T00:34:42.717Z,12.95
2022-11-04T00:37:10.408Z,12.78
2022-11-04T00:39:37.793Z,12.91
2022-11-04T00:42:05.398Z,12.94
2022-11-04T00:44:33.117Z,13.01
2022-11-04T00:47:00.520Z,13.17
2022-11-04T00:49:27.927Z,12.97
2022-11-04T00:51:55.801Z,12.95
2022-11-04T00:54:23.221Z,13.02
2022-11-04T00:56:50.615Z,12.88
2022-11-04T00:59:18.287Z,12.93
2022-11-04T01:01:45.909Z,12.87
2022-11-04T01:04:13.619Z,12.90
2022-11-04T01:06:41.321Z,12.77
2022-11-04T01:09:09.300Z,13.02
2022-11-04T01:11:36.743Z,13.15
2022-11-04T01:14:04.597Z,12.96
2022-11-04T01:16:32.057Z,12.91
2022-11-04T01:18:59.618Z,13.25
2022-11-04T01:21:27.321Z,12.90
2022-11-04T01:23:54.740Z,12.83
2022-11-04T01:26:24.180Z,12.96
2022-11-04T01:28:52.729Z,12.95
2022-11-04T01:31:22.427Z,12.98
2022-11-04T01:33:51.091Z,12.99
2022-11-04T01:36:19.366Z,13.26
2022-11-04T01:38:47.167Z,12.88
2022-11-04T01:41:34.016Z,12.83
2022-11-04T01:44:21.828Z,13.16
2022-11-04T01:46:51.196Z,13.22
2022-11-04T01:49:23.667Z,13.04
2022-11-04T01:51:53.679Z,12.67
2022-11-04T01:54:21.648Z,13.22
2022-11-04T01:56:49.373Z,13.15
2022-11-04T01:59:21.562Z,12.92
2022-11-04T02:01:49.372Z,12.94
2022-11-04T02:04:26.408Z,13.38
2022-11-04T02:07:01.241Z,13.87
2022-11-04T02:09:30.943Z,13.53
2022-11-04T02:12:16.952Z,13.65
2022-11-04T02:14:46.654Z,13.35
2022-11-04T02:17:20.114Z,13.84
2022-11-04T02:20:06.268Z,13.84
2022-11-04T02:22:47.955Z,12.90
2022-11-04T02:25:33.321Z,13.19
2022-11-04T02:28:15.818Z,13.16
2022-11-04T02:31:00.987Z,13.87
2022-11-04T02:33:39.732Z,13.10
2022-11-04T02:36:33.491Z,12.62
2022-11-04T02:39:19.077Z,13.97
2022-11-04T02:42:04.912Z,13.72
2022-11-04T02:44:36.944Z,13.35
2022-11-04T02:47:08.011Z,13.79
2022-11-04T02:49:38.935Z,13.40
2022-11-04T02:52:10.514Z,13.63
2022-11-04T02:54:58.655Z,13.12
2022-11-04T02:57:30.383Z,13.16
2022-11-04T03:00:09.136Z,13.90
2022-11-04T03:02:46.055Z,13.97
2022-11-04T03:05:16.463Z,13.80
2022-11-04T03:07:45.182Z,13.40
2022-11-04T03:10:34.241Z,13.80
2022-11-04T03:13:07.050Z,12.79
2022-11-04T03:15:35.584Z,12.86
2022-11-04T03:18:38.810Z,12.67
2022-11-04T03:21:07.601Z,12.77
2022-11-04T03:23:35.434Z,12.51
2022-11-04T03:26:11.695Z,12.59
2022-11-04T03:28:43.884Z,12.52
2022-11-04T03:31:23.923Z,12.52
2022-11-04T03:33:52.575Z,12.63
2022-11-04T03:36:21.907Z,12.72
2022-11-04T03:38:50.368Z,12.30
2022-11-04T03:41:37.835Z,12.35
2022-11-04T03:44:05.250Z,12.06
2022-11-04T03:46:32.968Z,12.26
2022-11-04T03:49:01.022Z,12.27
2022-11-04T03:51:28.427Z,11.95
2022-11-04T03:53:56.931Z,12.18
2022-11-04T03:57:05.892Z,12.42
2022-11-04T03:59:47.534Z,12.51
2022-11-04T04:02:21.406Z,12.57
2022-11-04T04:05:02.241Z,11.84
2022-11-04T04:07:37.713Z,11.83
2022-11-04T04:10:33.728Z,12.04
2022-11-04T04:13:03.249Z,12.02
2022-11-04T04:15:41.118Z,12.63
2022-11-04T04:18:13.484Z,11.98
2022-11-04T04:20:42.491Z,11.99
2022-11-04T04:23:31.252Z,12.94
2022-11-04T04:26:20.105Z,11.64
2022-11-04T04:28:47.891Z,12.48
2022-11-04T04:31:38.984Z,12.32
2022-11-04T04:34:06.660Z,12.20
2022-11-04T04:36:46.823Z,11.98
2022-11-04T04:39:35.911Z,12.28
2022-11-04T04:42:22.666Z,12.31
2022-11-04T04:45:05.234Z,12.76
2022-11-04T04:47:43.642Z,12.55
2022-11-04T04:50:15.122Z,12.61
2022-11-04T04:52:48.107Z,12.34
2022-11-04T04:55:16.550Z,12.40
2022-11-04T04:57:44.656Z,12.37
2022-11-04T05:00:17.531Z,12.53
2022-11-04T05:02:45.450Z,12.74
2022-11-04T05:05:13.548Z,12.59
2022-11-04T05:07:41.141Z,12.38
2022-11-04T05:10:11.634Z,12.00
2022-11-04T05:12:58.635Z,12.37
2022-11-04T05:15:27.429Z,12.81
2022-11-04T05:17:59.426Z,12.27
2022-11-04T05:20:27.324Z,12.35
2022-11-04T05:22:55.244Z,12.83
2022-11-04T05:25:22.761Z,12.16
2022-11-04T05:27:50.470Z,12.15
2022-11-04T05:30:18.092Z,12.03
2022-11-04T05:32:45.556Z,12.41
2022-11-04T05:35:13.247Z,11.77
2022-11-04T05:37:40.666Z,11.63
2022-11-04T05:40:08.603Z,11.63
2022-11-04T05:42:36.891Z,11.27
2022-11-04T05:45:04.983Z,11.52
2022-11-04T05:47:32.394Z,11.68
2022-11-04T05:50:00.116Z,11.26
2022-11-04T05:52:27.543Z,12.00
2022-11-04T05:54:54.927Z,11.75
2022-11-04T05:57:22.632Z,12.30
2022-11-04T05:59:50.089Z,12.31
2022-11-04T06:02:17.665Z,11.63
2022-11-04T06:04:45.452Z,11.93
2022-11-04T06:07:13.344Z,12.01
2022-11-04T06:09:41.072Z,12.47
2022-11-04T06:12:15.160Z,12.17
2022-11-04T06:14:43.289Z,12.09
2022-11-04T06:17:18.495Z,12.06
2022-11-04T06:19:45.945Z,11.22
2022-11-04T06:22:15.740Z,11.39
2022-11-04T06:24:43.489Z,11.27
2022-11-04T06:27:11.552Z,11.27
2022-11-04T06:29:42.263Z,11.34
2022-11-04T06:32:11.672Z,11.54
2022-11-04T06:34:40.587Z,11.18
2022-11-04T06:37:09.321Z,11.16
2022-11-04T06:39:36.914Z,11.68
2022-11-04T06:42:05.344Z,11.26
2022-11-04T06:44:34.513Z,11.37
2022-11-04T06:47:01.979Z,11.66
2022-11-04T06:49:29.660Z,11.55
2022-11-04T06:51:57.041Z,11.51
2022-11-04T06:54:24.549Z,11.32
2022-11-04T06:56:52.233Z,11.68
2022-11-04T06:59:20.619Z,11.98
2022-11-04T07:01:49.972Z,11.75
2022-11-04T07:04:17.872Z,11.83
2022-11-04T07:06:45.467Z,10.87
2022-11-04T07:09:14.350Z,11.32
2022-11-04T07:11:43.274Z,11.08
2022-11-04T07:14:10.960Z,11.38
2022-11-04T07:16:38.477Z,11.77
2022-11-04T07:19:06.735Z,11.38
2022-11-04T07:21:34.427Z,11.63
2022-11-04T07:24:02.265Z,11.57
2022-11-04T07:26:29.980Z,11.88
2022-11-04T07:28:58.108Z,11.61
2022-11-04T07:31:25.545Z,11.48
2022-11-04T07:33:53.744Z,11.33
2022-11-04T07:36:21.558Z,11.83
2022-11-04T07:38:49.187Z,11.61
2022-11-04T07:41:18.181Z,11.18
2022-11-04T07:43:52.194Z,11.29
2022-11-04T07:46:20.449Z,12.07
2022-11-04T07:48:47.966Z,11.37
2022-11-04T07:51:17.347Z,11.55
2022-11-04T07:53:45.132Z,11.62
2022-11-04T07:56:13.513Z,11.55
2022-11-04T07:58:41.322Z,11.59
2022-11-04T08:01:12.024Z,11.61
2022-11-04T08:03:39.927Z,11.46
2022-11-04T08:06:09.599Z,11.61
2022-11-04T08:08:37.578Z,11.51
2022-11-04T08:11:12.825Z,11.62
2022-11-04T08:13:43.681Z,11.91
2022-11-04T08:16:22.744Z,11.34
2022-11-04T08:18:52.621Z,10.88
2022-11-04T08:21:21.088Z,11.15
2022-11-04T08:23:48.531Z,11.58
2022-11-04T08:26:17.880Z,10.75
2022-11-04T08:28:46.066Z,11.36
2022-11-04T08:31:21.547Z,11.52
2022-11-04T08:33:49.374Z,11.84
2022-11-04T08:36:31.675Z,11.81
2022-11-04T08:38:59.798Z,11.84
2022-11-04T08:41:30.850Z,11.39
2022-11-04T08:44:04.190Z,11.69
2022-11-04T08:46:38.421Z,12.00
2022-11-04T08:49:09.971Z,11.72
2022-11-04T08:51:41.699Z,11.65
2022-11-04T08:54:09.454Z,11.70
2022-11-04T08:56:38.508Z,11.75
2022-11-04T08:59:06.813Z,11.65
2022-11-04T09:01:36.564Z,12.00
2022-11-04T09:04:05.388Z,11.85
2022-11-04T09:06:36.306Z,12.03
2022-11-04T09:09:05.731Z,11.62
2022-11-04T09:11:38.317Z,11.52
2022-11-04T09:14:06.100Z,11.09
2022-11-04T09:16:34.820Z,11.57
2022-11-04T09:19:02.343Z,11.76
2022-11-04T09:21:29.860Z,11.65
2022-11-04T09:23:57.602Z,11.19
2022-11-04T09:26:25.634Z,11.61
2022-11-04T09:28:56.682Z,11.28
2022-11-04T09:31:25.509Z,11.66
2022-11-04T09:33:55.240Z,11.65
2022-11-04T09:36:23.088Z,11.57
2022-11-04T09:38:50.920Z,11.64
2022-11-04T09:41:47.894Z,11.87
2022-11-04T09:45:15.379Z,11.84
2022-11-04T09:47:39.490Z,11.86
2022-11-04T09:50:11.401Z,11.57
2022-11-04T09:52:42.308Z,11.52
2022-11-04T09:55:12.940Z,11.76
2022-11-04T09:57:40.504Z,11.64
2022-11-04T10:00:15.096Z,11.39
2022-11-04T10:02:50.709Z,11.27
2022-11-04T10:05:18.003Z,11.46
2022-11-04T10:08:23.491Z,11.42
2022-11-04T10:11:08.468Z,11.11
2022-11-04T10:13:58.167Z,10.94
2022-11-04T10:16:44.276Z,11.35
2022-11-04T10:19:47.958Z,11.34
2022-11-04T10:22:35.321Z,11.48
2022-11-04T10:25:09.910Z,11.48
2022-11-04T10:27:39.679Z,11.43
2022-11-04T10:30:16.634Z,11.38
2022-11-04T10:32:59.553Z,11.01
2022-11-04T10:35:35.378Z,11.16
2022-11-04T10:38:33.941Z,10.59
2022-11-04T10:41:07.034Z,11.80
2022-11-04T10:43:37.836Z,11.68
2022-11-04T10:46:45.343Z,11.83
2022-11-04T10:50:00.093Z,11.63
2022-11-04T10:52:35.416Z,11.39
2022-11-04T10:55:03.040Z,11.53
2022-11-04T10:57:30.983Z,11.40
2022-11-04T11:00:03.910Z,10.82
2022-11-04T11:02:38.149Z,11.30
2022-11-04T11:05:17.613Z,11.57
2022-11-04T11:07:46.907Z,11.12
2022-11-04T11:10:25.337Z,11.71
2022-11-04T11:13:08.197Z,11.69
2022-11-04T11:15:38.455Z,11.35
2022-11-04T11:18:06.130Z,11.32
2022-11-04T11:20:37.606Z,12.13
2022-11-04T11:23:10.351Z,11.80
2022-11-04T11:25:45.282Z,12.06
2022-11-04T11:28:21.916Z,11.95
2022-11-04T11:30:49.498Z,11.97
2022-11-04T11:33:24.387Z,11.58
2022-11-04T11:35:59.258Z,12.12
2022-11-04T11:38:30.074Z,11.70
2022-11-04T11:41:24.557Z,12.11
2022-11-04T11:43:53.903Z,11.61
2022-11-04T11:46:26.960Z,11.82
2022-11-04T11:49:03.473Z,12.10
2022-11-04T11:51:33.158Z,11.88
2022-11-04T11:54:16.273Z,11.55
2022-11-04T12:03:08.284Z,11.92
2022-11-04T12:09:23.335Z,11.66
2022-11-04T12:12:16.575Z,11.79
2022-11-04T12:14:56.418Z,11.93
2022-11-04T12:17:39.433Z,12.06
2022-11-04T12:20:24.839Z,12.03
2022-11-04T12:23:04.523Z,12.04
2022-11-04T12:25:36.411Z,12.15
2022-11-04T12:28:28.793Z,12.13
2022-11-04T12:31:11.306Z,11.66
2022-11-04T12:33:46.674Z,11.97
2022-11-04T12:36:25.565Z,11.72
2022-11-04T12:39:03.135Z,12.20
2022-11-04T12:42:18.988Z,12.26
2022-11-04T12:44:49.531Z,12.47
2022-11-04T12:47:36.641Z,12.46
2022-11-04T12:50:35.036Z,12.57
2022-11-04T12:53:21.324Z,12.29
2022-11-04T12:56:11.131Z,12.34
2022-11-04T12:59:09.311Z,12.40
2022-11-04T13:01:47.637Z,12.32
2022-11-04T13:04:20.590Z,12.50
2022-11-04T13:07:00.675Z,12.17
2022-11-04T13:09:37.111Z,12.20
2022-11-04T13:12:23.226Z,12.41
2022-11-04T13:14:54.986Z,12.14
2022-11-04T13:17:26.701Z,12.21
2022-11-04T13:19:56.844Z,12.10
2022-11-04T13:22:27.904Z,12.01
2022-11-04T13:25:07.607Z,12.10
2022-11-04T13:27:40.650Z,12.56
2022-11-04T13:30:22.168Z,12.52
2022-11-04T13:32:59.274Z,12.42
2022-11-04T13:35:32.249Z,12.54
2022-11-04T13:38:08.815Z,12.44
2022-11-04T13:41:24.136Z,12.41
2022-11-04T13:44:03.344Z,12.19
2022-11-04T13:46:33.683Z,12.28
2022-11-04T13:49:06.903Z,12.69
2022-11-04T13:51:41.619Z,12.26
2022-11-04T13:54:26.853Z,12.63
2022-11-04T13:57:15.173Z,12.51
2022-11-04T13:59:44.407Z,12.28
2022-11-04T14:02:12.050Z,12.80
2022-11-04T14:04:40.886Z,12.49
2022-11-04T14:07:10.740Z,12.58
2022-11-04T14:09:44.342Z,12.56
2022-11-04T14:12:14.591Z,12.80
2022-11-04T14:14:52.849Z,12.54
2022-11-04T14:17:32.781Z,11.81
2022-11-04T14:20:11.509Z,12.30
2022-11-04T14:22:55.894Z,12.99
2022-11-04T14:25:33.986Z,12.31
2022-11-04T14:28:17.185Z,12.55
2022-11-04T14:30:51.329Z,12.41
2022-11-04T14:33:34.230Z,12.75
2022-11-04T14:36:30.181Z,12.91
2022-11-04T14:39:02.262Z,13.40
2022-11-04T14:41:31.482Z,13.68
2022-11-04T14:44:01.143Z,13.19
2022-11-04T14:46:43.989Z,13.62
2022-11-04T14:49:41.113Z,13.72
2022-11-04T14:52:26.864Z,13.40
2022-11-04T14:54:58.537Z,13.72
2022-11-04T14:57:26.300Z,13.46
2022-11-04T14:59:54.006Z,13.73
2022-11-04T15:02:22.998Z,13.68
2022-11-04T15:04:52.311Z,13.48
2022-11-04T15:07:24.182Z,13.46
2022-11-04T15:09:51.399Z,13.88
2022-11-04T15:12:37.667Z,13.78
2022-11-04T15:15:23.969Z,13.85
2022-11-04T15:17:51.200Z,13.50
2022-11-04T15:20:22.271Z,13.47
2022-11-04T15:22:49.532Z,13.20
2022-11-04T15:25:16.889Z,13.52
2022-11-04T15:27:44.955Z,13.46
2022-11-04T15:30:20.749Z,13.18
2022-11-04T15:32:58.477Z,13.59
2022-11-04T15:35:25.913Z,13.21
2022-11-04T15:37:54.212Z,13.25
2022-11-04T15:40:22.150Z,13.69
2022-11-04T15:42:49.644Z,13.86
2022-11-04T15:45:31.666Z,13.28
2022-11-04T15:48:17.679Z,13.90
2022-11-04T15:50:45.487Z,13.96
2022-11-04T15:53:14.301Z,14.17
2022-11-04T15:55:42.776Z,13.51
2022-11-04T15:58:11.248Z,13.81
2022-11-04T16:00:38.660Z,13.79
2022-11-04T16:03:07.502Z,13.73
2022-11-04T16:05:37.470Z,13.69
2022-11-04T16:08:21.181Z,14.45
2022-11-04T16:10:49.292Z,14.56
2022-11-04T16:13:16.558Z,14.30
2022-11-04T16:15:48.867Z,14.25
2022-11-04T16:18:35.126Z,14.35
2022-11-04T16:21:07.036Z,14.42
2022-11-04T16:23:35.361Z,14.51
2022-11-04T16:26:06.181Z,14.76
2022-11-04T16:28:37.611Z,14.82
2022-11-04T16:31:06.669Z,14.99
2022-11-04T16:33:34.013Z,14.44
2022-11-04T16:36:01.800Z,14.32
2022-11-04T16:38:29.406Z,14.89
2022-11-04T16:40:56.887Z,14.32
2022-11-04T16:43:24.364Z,14.68
2022-11-04T16:45:54.063Z,14.76
2022-11-04T16:48:22.003Z,14.79
2022-11-04T16:50:49.349Z,15.08
2022-11-04T16:53:16.836Z,14.74
2022-11-04T16:55:43.990Z,15.13
2022-11-04T16:58:13.432Z,14.88
2022-11-04T17:00:40.960Z,14.32
2022-11-04T17:03:21.011Z,15.00
2022-11-04T17:05:50.903Z,14.62
2022-11-04T17:08:18.274Z,15.26
2022-11-04T17:10:46.780Z,14.60
2022-11-04T17:13:14.557Z,14.93
2022-11-04T17:15:41.817Z,14.63
2022-11-04T17:18:09.951Z,15.29
2022-11-04T17:20:37.624Z,15.07
2022-11-04T17:23:05.066Z,15.27
2022-11-04T17:25:32.564Z,14.83
2022-11-04T17:28:00.206Z,15.03
2022-11-04T17:30:27.639Z,15.49
2022-11-04T17:32:55.281Z,15.96
2022-11-04T17:35:22.884Z,16.17
2022-11-04T17:37:53.738Z,15.58
2022-11-04T17:40:21.822Z,15.84
2022-11-04T17:43:11.865Z,15.75
2022-11-04T17:45:41.274Z,15.79
2022-11-04T17:48:10.262Z,16.12
2022-11-04T17:50:38.386Z,16.02
2022-11-04T17:53:05.631Z,16.06
2022-11-04T17:55:36.715Z,16.21
2022-11-04T17:58:04.087Z,15.30
2022-11-04T18:00:31.425Z,15.88
2022-11-04T18:02:59.133Z,15.71
2022-11-04T18:05:26.476Z,16.03
2022-11-04T18:07:55.075Z,15.38
2022-11-04T18:10:22.823Z,15.65
2022-11-04T18:12:50.876Z,15.03
2022-11-04T18:15:18.935Z,14.87
2022-11-04T18:17:46.858Z,15.71
2022-11-04T18:20:15.451Z,15.93
2022-11-04T18:22:43.203Z,15.69
2022-11-04T18:25:11.444Z,15.92
2022-11-04T18:27:38.706Z,16.01
2022-11-04T18:30:06.554Z,16.36
2022-11-04T18:32:34.352Z,16.16
2022-11-04T18:35:01.880Z,16.49
2022-11-04T18:37:29.368Z,16.88
2022-11-04T18:39:56.992Z,16.67
2022-11-04T18:42:24.591Z,16.49
2022-11-04T18:44:52.022Z,16.68
2022-11-04T18:47:20.294Z,16.49
2022-11-04T18:49:47.982Z,16.52
2022-11-04T18:52:15.391Z,16.83
2022-11-04T18:54:43.403Z,17.11
2022-11-04T18:57:11.989Z,17.12
2022-11-04T18:59:39.374Z,17.12
2022-11-04T19:02:07.485Z,17.43
2022-11-04T19:04:35.095Z,17.46
2022-11-04T19:07:04.441Z,17.33
2022-11-04T19:09:48.023Z,17.48
2022-11-04T19:12:34.755Z,17.29
2022-11-04T19:15:04.546Z,17.44
2022-11-04T19:17:32.017Z,17.43
2022-11-04T19:19:59.347Z,17.52
2022-11-04T19:22:27.150Z,17.67
2022-11-04T19:24:54.527Z,17.63
2022-11-04T19:27:25.001Z,17.46
2022-11-04T19:29:52.709Z,17.52
2022-11-04T19:32:19.991Z,17.65
2022-11-04T19:34:47.366Z,17.63
2022-11-04T19:37:15.350Z,17.60
2022-11-04T19:39:42.942Z,17.69
2022-11-04T19:42:29.780Z,17.66
2022-11-04T19:44:57.630Z,17.70
2022-11-04T19:47:25.024Z,17.57
2022-11-04T19:49:52.424Z,17.61
2022-11-04T19:52:20.463Z,17.61
2022-11-04T19:54:47.663Z,17.50
2022-11-04T19:57:14.905Z,17.52
2022-11-04T19:59:42.568Z,17.41
2022-11-04T20:02:11.309Z,17.30
2022-11-04T20:04:38.876Z,17.23
2022-11-04T20:07:06.330Z,17.08
2022-11-04T20:09:33.711Z,17.20
2022-11-04T20:12:21.282Z,17.31
2022-11-04T20:14:48.658Z,17.28
2022-11-04T20:17:16.312Z,17.21
2022-11-04T20:19:43.878Z,17.23
2022-11-04T20:22:12.334Z,17.30
2022-11-04T20:24:40.001Z,17.32
2022-11-04T20:27:07.439Z,17.37
2022-11-04T20:29:34.909Z,17.33
2022-11-04T20:32:02.447Z,17.31
2022-11-04T20:34:32.936Z,17.32
2022-11-04T20:37:00.692Z,17.33
2022-11-04T20:39:28.371Z,17.28
2022-11-04T20:41:55.926Z,17.36
2022-11-04T20:44:23.325Z,17.30
2022-11-04T20:46:51.418Z,17.32
2022-11-04T20:49:18.810Z,17.36
2022-11-04T20:51:54.521Z,17.34
2022-11-04T20:54:23.165Z,17.33
2022-11-04T20:56:50.538Z,17.22
2022-11-04T20:59:18.438Z,17.13
2022-11-04T21:01:47.384Z,17.05
2022-11-04T21:04:18.149Z,17.17
2022-11-04T21:06:46.230Z,16.96
2022-11-04T21:09:14.292Z,17.11
2022-11-04T21:11:41.910Z,16.98
2022-11-04T21:14:14.981Z,16.82
2022-11-04T21:16:42.445Z,16.73
2022-11-04T21:19:11.861Z,16.81
2022-11-04T21:21:40.666Z,16.38
2022-11-04T21:24:08.094Z,16.47
2022-11-04T21:26:35.998Z,16.34
2022-11-04T21:29:06.037Z,16.38
2022-11-04T21:31:34.518Z,15.88
2022-11-04T21:34:02.254Z,15.88
2022-11-04T21:36:29.460Z,15.23
2022-11-04T21:38:56.877Z,15.39
2022-11-04T21:41:25.987Z,15.15
2022-11-04T21:44:00.669Z,15.09
2022-11-04T21:46:29.213Z,14.71
2022-11-04T21:48:56.611Z,15.06
2022-11-04T21:51:24.556Z,14.70
2022-11-04T21:53:52.402Z,13.89
2022-11-04T21:56:20.537Z,14.07
2022-11-04T21:58:47.809Z,13.61
2022-11-04T22:01:16.880Z,13.36
2022-11-04T22:03:44.760Z,13.53
2022-11-04T22:06:12.949Z,13.75
2022-11-04T22:08:43.651Z,13.13
2022-11-04T22:11:12.406Z,13.38
2022-11-04T22:13:39.735Z,13.16
2022-11-04T22:16:18.314Z,12.98
2022-11-04T22:18:46.043Z,13.00
2022-11-04T22:21:14.380Z,13.10
2022-11-04T22:23:41.675Z,12.66
2022-11-04T22:26:12.770Z,12.59
2022-11-04T22:28:39.996Z,12.37
2022-11-04T22:31:11.857Z,12.48
2022-11-04T22:33:39.405Z,11.53
2022-11-04T22:36:06.896Z,12.14
2022-11-04T22:38:34.501Z,12.79
2022-11-04T22:41:02.393Z,12.20
2022-11-04T22:43:29.593Z,12.49
2022-11-04T22:45:56.992Z,12.69
2022-11-04T22:48:24.587Z,12.68
2022-11-04T22:50:58.125Z,12.33
2022-11-04T22:53:25.869Z,12.09
2022-11-04T22:55:53.056Z,12.69
2022-11-04T22:58:20.263Z,12.52
2022-11-04T23:00:53.253Z,12.64
2022-11-04T23:03:20.485Z,12.58
2022-11-04T23:05:48.040Z,12.41
2022-11-04T23:08:15.234Z,12.66
2022-11-04T23:11:01.087Z,12.56
2022-11-04T23:13:47.195Z,13.21
2022-11-04T23:16:32.863Z,13.03
2022-11-04T23:19:00.342Z,12.44
2022-11-04T23:21:46.366Z,12.62
2022-11-04T23:24:32.819Z,12.50
2022-11-04T23:27:00.015Z,12.47
2022-11-04T23:29:46.277Z,12.64
2022-11-04T23:32:13.520Z,12.43
2022-11-04T23:34:59.883Z,12.50
2022-11-04T23:37:27.106Z,12.35
2022-11-04T23:39:54.627Z,12.51
2022-11-04T23:42:22.933Z,12.68
2022-11-04T23:45:12.468Z,12.26
2022-11-04T23:47:58.644Z,12.40
2022-11-04T23:50:45.739Z,12.57
2022-11-04T23:53:32.566Z,12.93
2022-11-04T23:56:18.578Z,11.79
2022-11-04T23:59:04.772Z,12.25
